ěÝzenÝ letovÚho provozu ╚eskÚ republiky
Letiste: LKNA Aktualizace: 17.05.2022 23:59:31  UTC
 METAR LKNA 18.05. 00:00 ...
METAR LKNA 180000Z 33005KT CAVOK 10/09 Q1023 RMK BLU=
 TAF LKNA 17.05. 23:00 ...
TAF LKNA 172300Z 1800/1900 36008KT CAVOK      BECMG 1803/1805 06006KT      BECMG 1811/1813 11008KT=